sensor_id;sensor_type;location;lat;lon;timestamp;pressure;altitude;pressure_sealevel;temperature;humidity
62948;BME280;51940;52.126;-0.994;2023-05-01T00:00:13;100491.91;;;11.68;100.00
62948;BME280;51940;52.126;-0.994;2023-05-01T00:02:39;100493.56;;;11.67;100.00
62948;BME280;51940;52.126;-0.994;2023-05-01T00:05:05;100492.21;;;11.64;100.00
62948;BME280;51940;52.126;-0.994;2023-05-01T00:07:31;100490.17;;;11.60;100.00
62948;BME280;51940;52.126;-0.994;2023-05-01T00:09:57;100487.59;;;11.50;100.00
62948;BME280;51940;52.126;-0.994;2023-05-01T00:12:23;100492.85;;;11.40;100.00
62948;BME280;51940;52.126;-0.994;2023-05-01T00:14:48;100486.70;;;11.29;100.00
62948;BME280;51940;52.126;-0.994;2023-05-01T00:17:14;100482.63;;;11.21;100.00
62948;BME280;51940;52.126;-0.994;2023-05-01T00:19:40;100479.20;;;11.15;100.00
62948;BME280;51940;52.126;-0.994;2023-05-01T00:22:06;100475.45;;;11.08;100.00
62948;BME280;51940;52.126;-0.994;2023-05-01T00:24:31;100471.54;;;11.00;100.00
62948;BME280;51940;52.126;-0.994;2023-05-01T00:26:57;100466.00;;;10.93;100.00
62948;BME280;51940;52.126;-0.994;2023-05-01T00:29:23;100463.67;;;10.86;100.00
62948;BME280;51940;52.126;-0.994;2023-05-01T00:31:49;100462.28;;;10.77;100.00
62948;BME280;51940;52.126;-0.994;2023-05-01T00:34:14;100462.95;;;10.71;100.00
62948;BME280;51940;52.126;-0.994;2023-05-01T00:36:40;100463.36;;;10.69;100.00
62948;BME280;51940;52.126;-0.994;2023-05-01T00:39:05;100460.64;;;10.64;100.00
62948;BME280;51940;52.126;-0.994;2023-05-01T00:41:35;100455.02;;;10.61;100.00
62948;BME280;51940;52.126;-0.994;2023-05-01T00:44:04;100450.92;;;10.59;100.00
62948;BME280;51940;52.126;-0.994;2023-05-01T00:46:31;100451.70;;;10.57;100.00
62948;BME280;51940;52.126;-0.994;2023-05-01T00:48:59;100447.59;;;10.49;100.00
62948;BME280;51940;52.126;-0.994;2023-05-01T00:51:28;100446.55;;;10.41;100.00
62948;BME280;51940;52.126;-0.994;2023-05-01T00:53:54;100446.92;;;10.31;100.00
62948;BME280;51940;52.126;-0.994;2023-05-01T00:56:20;100440.54;;;10.21;100.00
62948;BME280;51940;52.126;-0.994;2023-05-01T00:58:49;100440.16;;;10.13;100.00
62948;BME280;51940;52.126;-0.994;2023-05-01T01:01:19;100438.73;;;10.05;100.00
62948;BME280;51940;52.126;-0.994;2023-05-01T01:03:45;100436.59;;;9.97;100.00
62948;BME280;51940;52.126;-0.994;2023-05-01T01:07:08;100436.80;;;9.86;100.00
62948;BME280;51940;52.126;-0.994;2023-05-01T01:14:43;100429.91;;;9.67;100.00
62948;BME280;51940;52.126;-0.994;2023-05-01T01:17:29;100430.06;;;9.68;100.00
62948;BME280;51940;52.126;-0.994;2023-05-01T01:20:10;100431.00;;;9.66;100.00
62948;BME280;51940;52.126;-0.994;2023-05-01T01:22:40;100428.05;;;9.61;100.00
62948;BME280;51940;52.126;-0.994;2023-05-01T01:35:41;100423.08;;;9.43;100.00
62948;BME280;51940;52.126;-0.994;2023-05-01T01:38:15;100421.74;;;9.46;100.00
62948;BME280;51940;52.126;-0.994;2023-05-01T01:40:58;100418.19;;;9.46;100.00
62948;BME280;51940;52.126;-0.994;2023-05-01T01:43:36;100421.05;;;9.46;100.00
62948;BME280;51940;52.126;-0.994;2023-05-01T01:46:07;100419.16;;;9.43;100.00
62948;BME280;51940;52.126;-0.994;2023-05-01T01:48:37;100415.53;;;9.36;100.00
62948;BME280;51940;52.126;-0.994;2023-05-01T01:51:14;100410.70;;;9.28;100.00
62948;BME280;51940;52.126;-0.994;2023-05-01T01:53:47;100403.89;;;9.22;100.00
62948;BME280;51940;52.126;-0.994;2023-05-01T01:56:17;100401.86;;;9.16;100.00
62948;BME280;51940;52.126;-0.994;2023-05-01T01:58:53;100398.74;;;9.11;100.00
62948;BME280;51940;52.126;-0.994;2023-05-01T02:01:20;100393.22;;;9.12;100.00
62948;BME280;51940;52.126;-0.994;2023-05-01T02:03:47;100388.15;;;9.17;100.00
62948;BME280;51940;52.126;-0.994;2023-05-01T02:06:14;100385.04;;;9.20;100.00
62948;BME280;51940;52.126;-0.994;2023-05-01T02:08:45;100383.93;;;9.23;100.00
62948;BME280;51940;52.126;-0.994;2023-05-01T02:11:12;100382.94;;;9.28;100.00
62948;BME280;51940;52.126;-0.994;2023-05-01T02:13:48;100384.29;;;9.33;100.00
62948;BME280;51940;52.126;-0.994;2023-05-01T02:16:14;100386.09;;;9.31;100.00
62948;BME280;51940;52.126;-0.994;2023-05-01T02:18:41;100383.34;;;9.26;100.00
62948;BME280;51940;52.126;-0.994;2023-05-01T02:21:08;100384.29;;;9.23;100.00
62948;BME280;51940;52.126;-0.994;2023-05-01T02:23:36;100381.32;;;9.20;100.00
62948;BME280;51940;52.126;-0.994;2023-05-01T02:26:03;100380.70;;;9.16;100.00
62948;BME280;51940;52.126;-0.994;2023-05-01T02:28:30;100377.69;;;9.14;100.00
62948;BME280;51940;52.126;-0.994;2023-05-01T02:30:57;100378.39;;;9.14;100.00
62948;BME280;51940;52.126;-0.994;2023-05-01T02:33:23;100376.45;;;9.14;100.00
62948;BME280;51940;52.126;-0.994;2023-05-01T02:35:48;100374.13;;;9.14;100.00
62948;BME280;51940;52.126;-0.994;2023-05-01T02:38:15;100372.34;;;9.15;100.00
62948;BME280;51940;52.126;-0.994;2023-05-01T02:40:45;100367.90;;;9.14;100.00
62948;BME280;51940;52.126;-0.994;2023-05-01T02:43:12;100368.67;;;9.11;100.00
62948;BME280;51940;52.126;-0.994;2023-05-01T02:45:42;100373.77;;;9.05;100.00
62948;BME280;51940;52.126;-0.994;2023-05-01T02:48:12;100369.43;;;8.98;100.00
62948;BME280;51940;52.126;-0.994;2023-05-01T02:50:38;100374.77;;;8.89;100.00
62948;BME280;51940;52.126;-0.994;2023-05-01T02:53:08;100377.91;;;8.83;100.00
62948;BME280;51940;52.126;-0.994;2023-05-01T02:55:36;100369.90;;;8.82;100.00
62948;BME280;51940;52.126;-0.994;2023-05-01T02:58:02;100366.63;;;8.86;100.00
62948;BME280;51940;52.126;-0.994;2023-05-01T03:00:28;100366.03;;;8.90;100.00
62948;BME280;51940;52.126;-0.994;2023-05-01T03:02:54;100365.13;;;8.91;100.00
62948;BME280;51940;52.126;-0.994;2023-05-01T03:05:20;100364.95;;;8.91;100.00
62948;BME280;51940;52.126;-0.994;2023-05-01T03:07:48;100359.91;;;8.84;100.00
62948;BME280;51940;52.126;-0.994;2023-05-01T03:10:17;100352.84;;;8.82;100.00
62948;BME280;51940;52.126;-0.994;2023-05-01T03:12:46;100355.48;;;8.83;100.00
62948;BME280;51940;52.126;-0.994;2023-05-01T03:15:11;100352.99;;;8.83;100.00
62948;BME280;51940;52.126;-0.994;2023-05-01T03:17:37;100356.55;;;8.83;100.00
62948;BME280;51940;52.126;-0.994;2023-05-01T03:20:03;100356.38;;;8.83;100.00
62948;BME280;51940;52.126;-0.994;2023-05-01T03:22:31;100353.58;;;8.81;100.00
62948;BME280;51940;52.126;-0.994;2023-05-01T03:24:58;100349.54;;;8.77;100.00
62948;BME280;51940;52.126;-0.994;2023-05-01T03:27:23;100348.34;;;8.74;100.00
62948;BME280;51940;52.126;-0.994;2023-05-01T03:29:49;100346.48;;;8.69;100.00
62948;BME280;51940;52.126;-0.994;2023-05-01T03:32:14;100338.70;;;8.67;100.00
62948;BME280;51940;52.126;-0.994;2023-05-01T03:34:41;100337.87;;;8.63;100.00
62948;BME280;51940;52.126;-0.994;2023-05-01T03:37:07;100338.46;;;8.60;100.00
62948;BME280;51940;52.126;-0.994;2023-05-01T03:39:32;100333.89;;;8.57;100.00
62948;BME280;51940;52.126;-0.994;2023-05-01T03:41:59;100333.41;;;8.54;100.00
62948;BME280;51940;52.126;-0.994;2023-05-01T03:44:25;100333.33;;;8.47;100.00
62948;BME280;51940;52.126;-0.994;2023-05-01T03:46:52;100337.49;;;8.42;100.00
62948;BME280;51940;52.126;-0.994;2023-05-01T03:49:17;100338.48;;;8.37;100.00
62948;BME280;51940;52.126;-0.994;2023-05-01T03:51:43;100343.17;;;8.31;100.00
62948;BME280;51940;52.126;-0.994;2023-05-01T03:54:08;100343.20;;;8.28;100.00
62948;BME280;51940;52.126;-0.994;2023-05-01T03:56:33;100345.36;;;8.26;100.00
62948;BME280;51940;52.126;-0.994;2023-05-01T03:59:00;100342.50;;;8.27;100.00
62948;BME280;51940;52.126;-0.994;2023-05-01T04:01:26;100344.22;;;8.32;100.00
62948;BME280;51940;52.126;-0.994;2023-05-01T04:03:51;100342.05;;;8.33;100.00
62948;BME280;51940;52.126;-0.994;2023-05-01T04:06:17;100337.91;;;8.39;100.00
62948;BME280;51940;52.126;-0.994;2023-05-01T04:08:43;100341.36;;;8.45;100.00
62948;BME280;51940;52.126;-0.994;2023-05-01T04:11:08;100340.88;;;8.54;100.00
62948;BME280;51940;52.126;-0.994;2023-05-01T04:13:35;100338.81;;;8.60;100.00
62948;BME280;51940;52.126;-0.994;2023-05-01T04:16:01;100335.36;;;8.65;100.00
62948;BME280;51940;52.126;-0.994;2023-05-01T04:18:27;100335.11;;;8.68;100.00
62948;BME280;51940;52.126;-0.994;2023-05-01T04:20:52;100336.84;;;8.72;100.00
62948;BME280;51940;52.126;-0.994;2023-05-01T04:23:18;100343.51;;;8.76;100.00
62948;BME280;51940;52.126;-0.994;2023-05-01T04:25:44;100339.19;;;8.79;100.00
62948;BME280;51940;52.126;-0.994;2023-05-01T04:28:11;100335.27;;;8.79;100.00
62948;BME280;51940;52.126;-0.994;2023-05-01T04:30:37;100340.94;;;8.81;100.00
62948;BME280;51940;52.126;-0.994;2023-05-01T04:33:02;100340.36;;;8.83;100.00
62948;BME280;51940;52.126;-0.994;2023-05-01T04:35:34;100334.80;;;8.86;100.00
62948;BME280;51940;52.126;-0.994;2023-05-01T04:38:00;100332.63;;;8.87;100.00
62948;BME280;51940;52.126;-0.994;2023-05-01T04:40:26;100332.59;;;8.90;100.00
62948;BME280;51940;52.126;-0.994;2023-05-01T04:42:51;100333.27;;;8.92;100.00
62948;BME280;51940;52.126;-0.994;2023-05-01T04:45:16;100337.87;;;8.93;100.00
62948;BME280;51940;52.126;-0.994;2023-05-01T04:47:42;100336.21;;;8.96;100.00
62948;BME280;51940;52.126;-0.994;2023-05-01T04:50:08;100339.70;;;9.00;100.00
62948;BME280;51940;52.126;-0.994;2023-05-01T04:52:33;100336.20;;;9.06;100.00
62948;BME280;51940;52.126;-0.994;2023-05-01T04:55:02;100339.31;;;9.11;100.00
62948;BME280;51940;52.126;-0.994;2023-05-01T04:57:28;100338.70;;;9.16;100.00
62948;BME280;51940;52.126;-0.994;2023-05-01T04:59:54;100343.45;;;9.18;100.00
62948;BME280;51940;52.126;-0.994;2023-05-01T05:02:20;100345.52;;;9.21;100.00
62948;BME280;51940;52.126;-0.994;2023-05-01T05:04:46;100354.20;;;9.24;100.00
62948;BME280;51940;52.126;-0.994;2023-05-01T05:07:11;100358.28;;;9.24;100.00
62948;BME280;51940;52.126;-0.994;2023-05-01T05:09:37;100358.86;;;9.23;100.00
62948;BME280;51940;52.126;-0.994;2023-05-01T05:12:02;100359.92;;;9.23;100.00
62948;BME280;51940;52.126;-0.994;2023-05-01T05:14:29;100360.09;;;9.24;100.00
62948;BME280;51940;52.126;-0.994;2023-05-01T05:16:54;100359.67;;;9.26;100.00
62948;BME280;51940;52.126;-0.994;2023-05-01T05:19:20;100358.87;;;9.30;100.00
62948;BME280;51940;52.126;-0.994;2023-05-01T05:21:46;100353.96;;;9.35;100.00
62948;BME280;51940;52.126;-0.994;2023-05-01T05:24:12;100354.06;;;9.40;100.00
62948;BME280;51940;52.126;-0.994;2023-05-01T05:26:37;100355.05;;;9.44;100.00
62948;BME280;51940;52.126;-0.994;2023-05-01T05:29:03;100353.19;;;9.47;100.00
62948;BME280;51940;52.126;-0.994;2023-05-01T05:31:28;100357.97;;;9.49;100.00
62948;BME280;51940;52.126;-0.994;2023-05-01T05:33:54;100358.31;;;9.50;100.00
62948;BME280;51940;52.126;-0.994;2023-05-01T05:36:19;100356.89;;;9.50;100.00
62948;BME280;51940;52.126;-0.994;2023-05-01T05:38:45;100357.09;;;9.48;100.00
62948;BME280;51940;52.126;-0.994;2023-05-01T05:41:10;100360.13;;;9.47;100.00
62948;BME280;51940;52.126;-0.994;2023-05-01T05:43:36;100353.04;;;9.46;100.00
62948;BME280;51940;52.126;-0.994;2023-05-01T05:46:01;100352.63;;;9.49;100.00
62948;BME280;51940;52.126;-0.994;2023-05-01T05:48:27;100348.81;;;9.52;100.00
62948;BME280;51940;52.126;-0.994;2023-05-01T05:50:52;100349.10;;;9.55;100.00
62948;BME280;51940;52.126;-0.994;2023-05-01T05:53:19;100349.61;;;9.56;100.00
62948;BME280;51940;52.126;-0.994;2023-05-01T05:55:47;100350.13;;;9.58;100.00
62948;BME280;51940;52.126;-0.994;2023-05-01T05:58:14;100347.30;;;9.65;100.00
62948;BME280;51940;52.126;-0.994;2023-05-01T06:00:48;100346.96;;;9.81;100.00
62948;BME280;51940;52.126;-0.994;2023-05-01T06:03:15;100350.08;;;10.01;100.00
62948;BME280;51940;52.126;-0.994;2023-05-01T06:05:42;100345.53;;;10.37;100.00
62948;BME280;51940;52.126;-0.994;2023-05-01T06:08:07;100342.89;;;10.65;100.00
62948;BME280;51940;52.126;-0.994;2023-05-01T06:10:38;100341.52;;;10.69;100.00
62948;BME280;51940;52.126;-0.994;2023-05-01T06:13:04;100338.25;;;10.79;100.00
62948;BME280;51940;52.126;-0.994;2023-05-01T06:15:32;100340.54;;;10.87;100.00
62948;BME280;51940;52.126;-0.994;2023-05-01T06:17:57;100343.02;;;10.95;100.00
62948;BME280;51940;52.126;-0.994;2023-05-01T06:20:23;100343.40;;;11.07;100.00
62948;BME280;51940;52.126;-0.994;2023-05-01T06:22:48;100342.06;;;11.17;100.00
62948;BME280;51940;52.126;-0.994;2023-05-01T06:25:14;100341.86;;;11.24;100.00
62948;BME280;51940;52.126;-0.994;2023-05-01T06:27:39;100347.19;;;11.38;100.00
62948;BME280;51940;52.126;-0.994;2023-05-01T06:30:05;100345.33;;;11.53;100.00
62948;BME280;51940;52.126;-0.994;2023-05-01T06:32:34;100349.95;;;11.66;100.00
62948;BME280;51940;52.126;-0.994;2023-05-01T06:34:59;100348.27;;;11.75;100.00
62948;BME280;51940;52.126;-0.994;2023-05-01T06:37:25;100352.77;;;11.73;100.00
62948;BME280;51940;52.126;-0.994;2023-05-01T06:39:50;100353.08;;;11.69;100.00
62948;BME280;51940;52.126;-0.994;2023-05-01T06:42:16;100356.56;;;11.66;100.00
62948;BME280;51940;52.126;-0.994;2023-05-01T06:44:42;100360.16;;;11.65;100.00
62948;BME280;51940;52.126;-0.994;2023-05-01T06:47:08;100359.39;;;11.60;100.00
62948;BME280;51940;52.126;-0.994;2023-05-01T06:49:34;100365.84;;;11.54;100.00
62948;BME280;51940;52.126;-0.994;2023-05-01T06:51:59;100365.98;;;11.49;100.00
62948;BME280;51940;52.126;-0.994;2023-05-01T06:54:25;100366.02;;;11.42;100.00
62948;BME280;51940;52.126;-0.994;2023-05-01T06:56:55;100368.55;;;11.34;100.00
62948;BME280;51940;52.126;-0.994;2023-05-01T06:59:22;100373.89;;;11.27;100.00
62948;BME280;51940;52.126;-0.994;2023-05-01T07:01:49;100377.59;;;11.23;100.00
62948;BME280;51940;52.126;-0.994;2023-05-01T07:04:14;100374.42;;;11.21;100.00
62948;BME280;51940;52.126;-0.994;2023-05-01T07:06:40;100379.05;;;11.22;100.00
62948;BME280;51940;52.126;-0.994;2023-05-01T07:09:05;100379.83;;;11.19;100.00
62948;BME280;51940;52.126;-0.994;2023-05-01T07:11:31;100375.77;;;11.18;100.00
62948;BME280;51940;52.126;-0.994;2023-05-01T07:13:59;100380.43;;;11.17;100.00
62948;BME280;51940;52.126;-0.994;2023-05-01T07:16:25;100379.92;;;11.16;100.00
62948;BME280;51940;52.126;-0.994;2023-05-01T07:18:50;100376.70;;;11.16;100.00
62948;BME280;51940;52.126;-0.994;2023-05-01T07:21:16;100379.27;;;11.21;100.00
62948;BME280;51940;52.126;-0.994;2023-05-01T07:23:41;100380.70;;;11.26;100.00
62948;BME280;51940;52.126;-0.994;2023-05-01T07:26:07;100378.54;;;11.27;100.00
62948;BME280;51940;52.126;-0.994;2023-05-01T07:28:32;100386.76;;;11.27;100.00
62948;BME280;51940;52.126;-0.994;2023-05-01T07:30:58;100388.00;;;11.28;100.00
62948;BME280;51940;52.126;-0.994;2023-05-01T07:33:26;100387.75;;;11.30;100.00
62948;BME280;51940;52.126;-0.994;2023-05-01T07:35:51;100394.14;;;11.32;100.00
62948;BME280;51940;52.126;-0.994;2023-05-01T07:38:17;100396.83;;;11.32;100.00
62948;BME280;51940;52.126;-0.994;2023-05-01T07:40:42;100397.69;;;11.33;100.00
62948;BME280;51940;52.126;-0.994;2023-05-01T07:43:08;100397.50;;;11.33;100.00
62948;BME280;51940;52.126;-0.994;2023-05-01T07:45:39;100395.14;;;11.35;100.00
62948;BME280;51940;52.126;-0.994;2023-05-01T07:48:05;100397.05;;;11.36;100.00
62948;BME280;51940;52.126;-0.994;2023-05-01T07:50:31;100398.46;;;11.37;100.00
62948;BME280;51940;52.126;-0.994;2023-05-01T07:52:57;100398.77;;;11.45;100.00
62948;BME280;51940;52.126;-0.994;2023-05-01T07:55:23;100393.90;;;11.66;100.00
62948;BME280;51940;52.126;-0.994;2023-05-01T07:57:49;100393.52;;;11.98;100.00
62948;BME280;51940;52.126;-0.994;2023-05-01T08:00:15;100394.23;;;12.16;100.00
62948;BME280;51940;52.126;-0.994;2023-05-01T08:02:41;100392.55;;;12.30;100.00
62948;BME280;51940;52.126;-0.994;2023-05-01T08:05:06;100386.85;;;12.52;100.00
62948;BME280;51940;52.126;-0.994;2023-05-01T08:07:32;100382.02;;;12.84;100.00
62948;BME280;51940;52.126;-0.994;2023-05-01T08:09:57;100379.32;;;13.17;100.00
62948;BME280;51940;52.126;-0.994;2023-05-01T08:12:28;100384.79;;;13.50;100.00
62948;BME280;51940;52.126;-0.994;2023-05-01T08:14:53;100386.30;;;13.82;100.00
62948;BME280;51940;52.126;-0.994;2023-05-01T08:17:19;100385.14;;;14.07;100.00
62948;BME280;51940;52.126;-0.994;2023-05-01T08:19:45;100384.95;;;14.35;100.00
62948;BME280;51940;52.126;-0.994;2023-05-01T08:22:10;100383.29;;;14.64;100.00
62948;BME280;51940;52.126;-0.994;2023-05-01T08:24:37;100388.14;;;14.85;100.00
62948;BME280;51940;52.126;-0.994;2023-05-01T08:27:03;100397.92;;;15.00;100.00
62948;BME280;51940;52.126;-0.994;2023-05-01T08:29:29;100406.23;;;15.16;100.00
62948;BME280;51940;52.126;-0.994;2023-05-01T08:31:57;100410.52;;;15.21;100.00
62948;BME280;51940;52.126;-0.994;2023-05-01T08:34:22;100418.63;;;15.28;100.00
62948;BME280;51940;52.126;-0.994;2023-05-01T08:36:51;100422.83;;;15.44;100.00
62948;BME280;51940;52.126;-0.994;2023-05-01T08:39:16;100431.93;;;15.53;100.00
62948;BME280;51940;52.126;-0.994;2023-05-01T08:41:46;100439.81;;;15.62;100.00
62948;BME280;51940;52.126;-0.994;2023-05-01T08:44:16;100439.39;;;15.76;100.00
62948;BME280;51940;52.126;-0.994;2023-05-01T08:49:26;100440.85;;;16.00;100.00
62948;BME280;51940;52.126;-0.994;2023-05-01T08:51:52;100443.66;;;16.20;100.00
62948;BME280;51940;52.126;-0.994;2023-05-01T08:54:22;100439.59;;;16.34;100.00
62948;BME280;51940;52.126;-0.994;2023-05-01T08:56:50;100448.81;;;16.41;100.00
62948;BME280;51940;52.126;-0.994;2023-05-01T08:59:18;100452.19;;;16.42;100.00
62948;BME280;51940;52.126;-0.994;2023-05-01T09:01:45;100458.17;;;16.57;100.00
62948;BME280;51940;52.126;-0.994;2023-05-01T09:04:13;100460.38;;;16.71;100.00
62948;BME280;51940;52.126;-0.994;2023-05-01T09:06:39;100464.98;;;16.80;100.00
62948;BME280;51940;52.126;-0.994;2023-05-01T09:09:05;100473.07;;;16.65;100.00
62948;BME280;51940;52.126;-0.994;2023-05-01T09:11:30;100476.00;;;16.45;100.00
62948;BME280;51940;52.126;-0.994;2023-05-01T09:13:56;100485.91;;;16.25;100.00
62948;BME280;51940;52.126;-0.994;2023-05-01T09:16:22;100492.83;;;16.16;100.00
62948;BME280;51940;52.126;-0.994;2023-05-01T09:18:47;100496.35;;;16.10;100.00
62948;BME280;51940;52.126;-0.994;2023-05-01T09:21:13;100497.35;;;16.08;100.00
62948;BME280;51940;52.126;-0.994;2023-05-01T09:23:38;100496.61;;;16.04;100.00
62948;BME280;51940;52.126;-0.994;2023-05-01T09:26:06;100497.05;;;16.06;100.00
62948;BME280;51940;52.126;-0.994;2023-05-01T09:28:52;100494.55;;;16.13;100.00
62948;BME280;51940;52.126;-0.994;2023-05-01T09:31:29;100497.77;;;16.21;100.00
62948;BME280;51940;52.126;-0.994;2023-05-01T09:34:04;100500.54;;;16.20;100.00
62948;BME280;51940;52.126;-0.994;2023-05-01T09:36:32;100507.35;;;16.21;100.00
62948;BME280;51940;52.126;-0.994;2023-05-01T09:38:59;100511.39;;;16.23;100.00
62948;BME280;51940;52.126;-0.994;2023-05-01T09:41:26;100518.82;;;16.18;100.00
62948;BME280;51940;52.126;-0.994;2023-05-01T09:43:56;100521.60;;;16.12;100.00
62948;BME280;51940;52.126;-0.994;2023-05-01T09:46:23;100527.20;;;16.20;100.00
62948;BME280;51940;52.126;-0.994;2023-05-01T09:48:53;100520.70;;;16.28;100.00
62948;BME280;51940;52.126;-0.994;2023-05-01T09:51:25;100521.38;;;16.33;100.00
62948;BME280;51940;52.126;-0.994;2023-05-01T09:53:53;100518.34;;;16.41;100.00
62948;BME280;51940;52.126;-0.994;2023-05-01T09:56:20;100520.58;;;16.47;100.00
62948;BME280;51940;52.126;-0.994;2023-05-01T09:58:47;100524.90;;;16.47;100.00
62948;BME280;51940;52.126;-0.994;2023-05-01T10:01:13;100526.38;;;16.45;100.00
62948;BME280;51940;52.126;-0.994;2023-05-01T10:03:39;100526.23;;;16.41;100.00
62948;BME280;51940;52.126;-0.994;2023-05-01T10:06:08;100526.95;;;16.37;100.00
62948;BME280;51940;52.126;-0.994;2023-05-01T10:08:43;100528.65;;;16.31;100.00
62948;BME280;51940;52.126;-0.994;2023-05-01T10:11:10;100538.70;;;16.20;100.00
62948;BME280;51940;52.126;-0.994;2023-05-01T10:13:35;100528.90;;;16.26;100.00
62948;BME280;51940;52.126;-0.994;2023-05-01T10:16:01;100523.77;;;16.44;100.00
62948;BME280;51940;52.126;-0.994;2023-05-01T10:18:35;100522.91;;;16.58;100.00
62948;BME280;51940;52.126;-0.994;2023-05-01T10:21:03;100520.36;;;16.67;100.00
62948;BME280;51940;52.126;-0.994;2023-05-01T10:23:29;100530.25;;;16.75;100.00
62948;BME280;51940;52.126;-0.994;2023-05-01T10:25:55;100532.83;;;16.82;100.00
62948;BME280;51940;52.126;-0.994;2023-05-01T10:28:23;100533.45;;;16.87;100.00
62948;BME280;51940;52.126;-0.994;2023-05-01T10:30:50;100534.83;;;16.92;100.00
62948;BME280;51940;52.126;-0.994;2023-05-01T10:33:16;100541.48;;;17.01;100.00
62948;BME280;51940;52.126;-0.994;2023-05-01T10:35:46;100542.42;;;16.99;100.00
62948;BME280;51940;52.126;-0.994;2023-05-01T10:38:22;100545.14;;;17.03;100.00
62948;BME280;51940;52.126;-0.994;2023-05-01T10:40:50;100546.59;;;17.10;100.00
62948;BME280;51940;52.126;-0.994;2023-05-01T10:43:21;100543.22;;;17.27;100.00
62948;BME280;51940;52.126;-0.994;2023-05-01T10:48:55;100552.13;;;17.47;100.00
62948;BME280;51940;52.126;-0.994;2023-05-01T10:54:30;100559.21;;;17.75;100.00
62948;BME280;51940;52.126;-0.994;2023-05-01T10:56:59;100566.88;;;17.74;100.00
62948;BME280;51940;52.126;-0.994;2023-05-01T11:00:11;100567.06;;;17.55;100.00
62948;BME280;51940;52.126;-0.994;2023-05-01T11:02:21;100569.71;;;17.41;100.00
62948;BME280;51940;52.126;-0.994;2023-05-01T11:04:48;100570.30;;;17.38;100.00
62948;BME280;51940;52.126;-0.994;2023-05-01T11:07:20;100575.80;;;17.39;100.00
62948;BME280;51940;52.126;-0.994;2023-05-01T11:15:04;100572.83;;;17.27;100.00
62948;BME280;51940;52.126;-0.994;2023-05-01T11:20:04;100571.01;;;17.27;100.00
62948;BME280;51940;52.126;-0.994;2023-05-01T11:22:32;100565.55;;;17.24;100.00
62948;BME280;51940;52.126;-0.994;2023-05-01T11:24:58;100575.23;;;17.18;100.00
62948;BME280;51940;52.126;-0.994;2023-05-01T11:27:25;100573.59;;;17.07;100.00
62948;BME280;51940;52.126;-0.994;2023-05-01T11:29:52;100573.05;;;17.00;100.00
62948;BME280;51940;52.126;-0.994;2023-05-01T11:32:26;100579.03;;;16.95;100.00
62948;BME280;51940;52.126;-0.994;2023-05-01T11:34:54;100575.24;;;16.91;100.00
62948;BME280;51940;52.126;-0.994;2023-05-01T11:37:43;100573.45;;;16.91;100.00
62948;BME280;51940;52.126;-0.994;2023-05-01T11:40:18;100577.35;;;16.93;100.00
62948;BME280;51940;52.126;-0.994;2023-05-01T11:42:49;100586.79;;;16.87;100.00
62948;BME280;51940;52.126;-0.994;2023-05-01T11:45:15;100588.31;;;16.74;100.00
62948;BME280;51940;52.126;-0.994;2023-05-01T11:47:42;100586.51;;;16.61;100.00
62948;BME280;51940;52.126;-0.994;2023-05-01T11:50:09;100593.69;;;16.46;100.00
62948;BME280;51940;52.126;-0.994;2023-05-01T11:52:50;100591.11;;;16.31;100.00
62948;BME280;51940;52.126;-0.994;2023-05-01T11:55:33;100590.11;;;16.21;100.00
62948;BME280;51940;52.126;-0.994;2023-05-01T11:57:59;100597.88;;;16.13;100.00
62948;BME280;51940;52.126;-0.994;2023-05-01T12:02:55;100604.77;;;15.82;100.00
62948;BME280;51940;52.126;-0.994;2023-05-01T12:05:25;100603.76;;;15.59;100.00
62948;BME280;51940;52.126;-0.994;2023-05-01T12:08:16;100601.54;;;15.34;100.00
62948;BME280;51940;52.126;-0.994;2023-05-01T12:10:50;100607.63;;;15.07;100.00
62948;BME280;51940;52.126;-0.994;2023-05-01T12:13:16;100606.48;;;14.95;100.00
62948;BME280;51940;52.126;-0.994;2023-05-01T12:15:48;100604.94;;;14.84;100.00
62948;BME280;51940;52.126;-0.994;2023-05-01T12:18:18;100606.58;;;14.74;100.00
62948;BME280;51940;52.126;-0.994;2023-05-01T12:20:49;100602.36;;;14.72;100.00
62948;BME280;51940;52.126;-0.994;2023-05-01T12:23:18;100599.77;;;14.73;100.00
62948;BME280;51940;52.126;-0.994;2023-05-01T12:25:45;100597.50;;;14.86;100.00
62948;BME280;51940;52.126;-0.994;2023-05-01T12:28:17;100593.02;;;14.95;100.00
62948;BME280;51940;52.126;-0.994;2023-05-01T12:30:45;100584.58;;;15.04;100.00
62948;BME280;51940;52.126;-0.994;2023-05-01T12:33:15;100579.64;;;15.15;100.00
62948;BME280;51940;52.126;-0.994;2023-05-01T12:35:42;100585.63;;;15.32;100.00
62948;BME280;51940;52.126;-0.994;2023-05-01T12:38:14;100579.51;;;15.54;100.00
62948;BME280;51940;52.126;-0.994;2023-05-01T12:40:53;100582.94;;;15.80;100.00
62948;BME280;51940;52.126;-0.994;2023-05-01T12:43:30;100584.84;;;16.02;100.00
62948;BME280;51940;52.126;-0.994;2023-05-01T12:45:56;100578.24;;;16.29;100.00
62948;BME280;51940;52.126;-0.994;2023-05-01T12:48:22;100578.16;;;16.63;100.00
62948;BME280;51940;52.126;-0.994;2023-05-01T12:50:49;100580.55;;;16.89;100.00
62948;BME280;51940;52.126;-0.994;2023-05-01T12:53:25;100582.52;;;17.05;100.00
62948;BME280;51940;52.126;-0.994;2023-05-01T12:55:53;100586.73;;;17.19;100.00
62948;BME280;51940;52.126;-0.994;2023-05-01T12:58:19;100598.05;;;17.30;100.00
62948;BME280;51940;52.126;-0.994;2023-05-01T13:00:50;100609.26;;;17.41;100.00
62948;BME280;51940;52.126;-0.994;2023-05-01T13:03:27;100615.45;;;17.51;100.00
62948;BME280;51940;52.126;-0.994;2023-05-01T13:06:01;100616.95;;;17.61;100.00
62948;BME280;51940;52.126;-0.994;2023-05-01T13:08:32;100620.54;;;17.68;100.00
62948;BME280;51940;52.126;-0.994;2023-05-01T13:11:15;100625.79;;;17.76;100.00